Terminal Aerodrome Forecast
Issued by NWS Wilmington, OH

Home | Current Version | Previous Version | Text Only | Print | Product List | Glossary On
Versions: 1 2 3 4 5 6 7 8 9 10 11 12 13 14 15 16 17 18 19
000
FTUS41 KILN 291011 AAA
TAFDAY
TAF AMD
KDAY 291011Z 2910/3006 00000KT 6SM BR FEW025 SCT150
     FM291300 VRB03KT P6SM SCT025
     FM291600 22005KT P6SM VCTS BKN040CB BKN150
     FM300100 00000KT P6SM SCT030 BKN150=

USA.gov is the U.S. government's official web portal to all federal, state and local government web resources and services.